Skip Navigation Links
NOAA logo - Click to go to the NOAA homepage
NOAA's National Weather Service
Alaska Aviation Weather Unit
  NWS logo - Click to go to the NWS homepage
Left Navbar Graphic     22 AKDT = 06 GMT

   
NOAA is celebrating 200 years of science, service, and stewardship. Visit the NOAA 200th celebration Web site to learn more.
USA.gov is the U.S. Government's official Web portal to all Federal, state and local government Web resources and services.
Facebook
NWS on Facebook

Important Change Regarding the AAWU Web Presence

 

Over the last several months, the AAWU has been working to navigate its webpages to a nationally supported server. Security, as well as other needs, have necessitated the change.  In the process, we have made an effort to enhance the functionality of our website, as well as some of our products. As of June 20, 2017, aawu.arh.noaa.gov will be discontinued. The new AAWU web address is weather.gov/aawu. It is now live and will run in-parallel with the old site until it is discontinued. Please send any feedback or questions regarding the new webpages to nws.ar.aawu.webauthors@noaa.gov.  Thank you for your patience during this time of transition.
AAWU Home :: Display TAF Add Bookmark
METAR PAFM 280056Z AUTO 06013G19KT 10SM -RA BKN040 OVC050 07/02 A3004
     RMK AO2 RAB31 SLP185 P0000 T00720022=

METAR PAFM 280256Z AUTO 09012G16KT 10SM CLR 10/02 A3002 RMK AO2 SLP183
     60000 T01000017 57004=

METAR PAFM 280356Z AUTO 12005KT 10SM OVC048 09/02 A3002 RMK AO2 SLP180
     T00940017=

METAR PAFM 280456Z AUTO 15011G26KT 10SM FEW060 09/02 A3003 RMK AO2
 PK WND 16026/0456 SLP183 T00940017=

METAR PAFM 280556Z AUTO 07007G16KT 10SM OVC043 07/02 A3004 RMK AO2
 RAB05E35 SLP189 P0000 60000 T00720017 10100 20072 53006=


NOAA's National Weather Service
Alaska Aviation Weather Unit
6930 Sand Lake Road
Anchorage, AK 99502-1845
Disclaimer
Credits
Glossary
Privacy Policy
About Us
Career Opportunities
Contact AAWU Internet Services Site last modified: April, 17th 2012